首页
METAR-TAF:

METAR-TAF

机场 :

锡根, 德国

纬度: 50-42-28N, 经度: 008-04-59E, 海拔: 602米

当前天气观测

该预报发布于32分钟前的16:20 UTC
风速10节,风向西转西南,在西转西北之间变化
温度 8°C
湿度 87%
气压 994 hPa
能见度10公里或以上
少量云层高于1100英尺
散云层高于4000英尺

METAR: EDGS 051620Z 24010KT 170V290 9999 FEW011 SCT040 08/06 Q0994

时间: 18:52 (16:52 UTC)

预报

该预报发布于2小时和52分钟前的14:00 UTC
预报有效从05日的 15点(UTC)到 05日的 24点(UTC)
风速13节,风向西南
能见度10公里或以上
多云层高于1000英尺
短暂存在
从 05日的 15点(UTC)到 05日的 19点(UTC)
风速15节,风向西南,有时为30节阵风
能見度: 2500
多云层高于400英尺, 积雨云.
阵雨
几率 30% :
短暂存在
从 05日的 15点(UTC)到 05日的 19点(UTC)
雷暴, 雨
成为
从 05日的 16点(UTC)到 05日的 18点(UTC)
散云层高于1000英尺
多云层高于2000英尺

TAF: EDGS 051400Z 0515/0524 23013KT 9999 BKN010 TEMPO 0515/0519 23015G30KT 2500 SHRA BKN004CB PROB30 TEMPO 0515/0519 TSRA BECMG 0516/0518 SCT010 BKN020

超过4000个机场的气象观测和天气预报(METAR&TAF报告)。

可查询的气象台以黄色和红色小点在地图上表示。

将鼠标移到小点上方,可查看气象台名称。

然后点击查看天气观测和预报。

如需切换地图:点击带黑十字的绿色按钮放大地图;点击带横线的绿色按钮缩小地图;或者点击绿色箭头查看邻近地区的地图。


METAR-TAF: